createdAt,value
2023-08-17T00:05:30.126Z,100452.88
2023-08-17T00:20:32.111Z,100463.16
2023-08-17T00:35:34.084Z,100450.59
2023-08-17T00:50:38.055Z,100451.00
2023-08-17T01:05:40.077Z,100434.09
2023-08-17T01:20:43.152Z,100430.38
2023-08-17T01:35:55.537Z,100428.72
2023-08-17T01:50:57.750Z,100413.66
2023-08-17T02:06:00.708Z,100401.94
2023-08-17T02:21:02.799Z,100417.13
2023-08-17T02:36:05.316Z,100424.81
2023-08-17T02:51:07.362Z,100438.59
2023-08-17T03:06:11.163Z,100443.41
2023-08-17T03:21:13.243Z,100445.91
2023-08-17T03:36:15.307Z,100454.75
2023-08-17T03:51:17.347Z,100460.75
2023-08-17T04:06:19.344Z,100463.13
2023-08-17T04:21:21.756Z,100488.34
2023-08-17T04:36:23.585Z,100482.88
2023-08-17T04:51:25.675Z,100492.28
2023-08-17T05:06:29.738Z,100504.53
2023-08-17T05:21:31.820Z,100509.97
2023-08-17T05:36:33.816Z,100507.44
2023-08-17T05:51:35.896Z,100516.09
2023-08-17T06:06:37.910Z,100513.31
2023-08-17T06:21:39.878Z,100521.75
2023-08-17T06:36:41.885Z,100534.63
2023-08-17T06:51:44.064Z,100537.16
2023-08-17T07:06:46.098Z,100524.78
2023-08-17T07:21:48.105Z,100528.38
2023-08-17T07:36:52.279Z,100529.56
2023-08-17T07:51:54.325Z,100525.53
2023-08-17T08:06:56.256Z,100513.91
2023-08-17T08:21:58.219Z,100513.41
2023-08-17T08:37:00.310Z,100517.59
2023-08-17T08:52:18.500Z,100511.44
2023-08-17T09:07:22.328Z,100505.00
2023-08-17T09:37:55.877Z,100487.03
2023-08-17T09:52:58.785Z,100481.81
2023-08-17T10:08:02.780Z,100485.38
2023-08-17T10:23:25.263Z,100486.84
2023-08-17T10:38:27.498Z,100487.44
2023-08-17T10:53:37.187Z,100475.56
2023-08-17T11:08:54.493Z,100473.16
2023-08-17T11:23:59.748Z,100467.94
2023-08-17T11:39:01.715Z,100454.59
2023-08-17T11:54:06.262Z,100459.69
2023-08-17T12:09:08.275Z,100449.00
2023-08-17T12:24:15.506Z,100452.53
2023-08-17T12:39:17.894Z,100447.16
2023-08-17T12:54:19.961Z,100432.47
2023-08-17T13:09:22.845Z,100435.19
2023-08-17T13:24:24.842Z,100430.38
2023-08-17T13:39:29.235Z,100443.47
2023-08-17T13:54:31.543Z,100432.34
2023-08-17T14:09:33.589Z,100450.06
2023-08-17T14:24:35.579Z,100436.13
2023-08-17T14:39:38.065Z,100437.06
2023-08-17T14:54:43.366Z,100439.69
2023-08-17T15:09:45.661Z,100433.06
2023-08-17T15:24:48.461Z,100429.56
2023-08-17T15:39:51.879Z,100431.66
2023-08-17T15:54:55.724Z,100440.22
2023-08-17T16:10:00.179Z,100441.31
2023-08-17T16:25:02.328Z,100445.63
2023-08-17T16:40:05.654Z,100452.25
2023-08-17T16:55:08.319Z,100462.25
2023-08-17T17:10:10.935Z,100474.34
2023-08-17T17:43:36.876Z,100499.25
2023-08-17T17:58:39.339Z,100499.06
2023-08-17T18:13:41.275Z,100484.41
2023-08-17T18:28:43.192Z,100497.41
2023-08-17T18:43:45.238Z,100490.03
2023-08-17T18:58:51.012Z,100496.88
2023-08-17T19:13:53.072Z,100491.47
2023-08-17T19:28:55.073Z,100501.84
2023-08-17T19:43:57.045Z,100504.47
2023-08-17T19:58:59.197Z,100505.16
2023-08-17T20:14:01.159Z,100513.31
2023-08-17T20:29:03.353Z,100520.47
2023-08-17T20:44:05.560Z,100519.66
2023-08-17T20:59:07.669Z,100531.97
2023-08-17T21:14:09.614Z,100537.50
2023-08-17T21:29:11.693Z,100532.72
2023-08-17T21:44:13.567Z,100526.06
2023-08-17T21:59:15.901Z,100527.56
2023-08-17T22:14:17.833Z,100526.94
2023-08-17T22:29:19.794Z,100528.47
2023-08-17T22:44:21.727Z,100535.78
2023-08-17T22:59:23.990Z,100536.00
2023-08-17T23:14:25.762Z,100545.22
2023-08-17T23:29:27.707Z,100564.13
2023-08-17T23:44:30.749Z,100561.97
2023-08-17T23:59:33.026Z,100562.19
